createdAt,value
2022-08-10T00:01:54.030Z,16.40
2022-08-10T00:04:25.050Z,16.40
2022-08-10T00:06:54.389Z,16.40
2022-08-10T00:09:22.175Z,16.40
2022-08-10T00:11:48.990Z,16.40
2022-08-10T00:14:16.169Z,16.40
2022-08-10T00:16:48.061Z,16.40
2022-08-10T00:19:16.722Z,16.40
2022-08-10T00:21:47.439Z,16.30
2022-08-10T00:24:17.552Z,16.30
2022-08-10T00:28:01.163Z,16.20
2022-08-10T00:29:34.313Z,16.30
2022-08-10T00:32:03.277Z,16.20
2022-08-10T00:34:31.551Z,16.20
2022-08-10T00:37:01.357Z,16.10
2022-08-10T00:39:29.267Z,16.10
2022-08-10T00:42:02.161Z,16.10
2022-08-10T00:44:46.447Z,16.10
2022-08-10T00:47:35.548Z,16.20
2022-08-10T00:50:01.291Z,16.10
2022-08-10T00:52:30.801Z,15.90
2022-08-10T00:55:00.949Z,15.90
2022-08-10T00:57:28.473Z,15.80
2022-08-10T00:59:58.207Z,15.80
2022-08-10T01:02:30.777Z,15.80
2022-08-10T01:05:02.099Z,15.80
2022-08-10T01:07:59.128Z,15.70
2022-08-10T01:10:43.882Z,15.70
2022-08-10T01:13:27.060Z,15.60
2022-08-10T01:16:13.280Z,15.60
2022-08-10T01:19:00.038Z,15.60
2022-08-10T01:22:04.076Z,15.50
2022-08-10T01:24:55.153Z,15.50
2022-08-10T01:27:40.561Z,15.50
2022-08-10T01:30:13.512Z,15.60
2022-08-10T01:32:46.148Z,15.70
2022-08-10T01:35:18.281Z,15.60
2022-08-10T01:37:59.490Z,15.60
2022-08-10T01:40:29.716Z,15.60
2022-08-10T01:43:07.771Z,15.50
2022-08-10T01:45:45.574Z,15.40
2022-08-10T01:48:32.078Z,15.40
2022-08-10T01:51:21.932Z,15.40
2022-08-10T01:53:58.863Z,15.30
2022-08-10T01:56:28.441Z,15.40
2022-08-10T01:59:14.404Z,15.40
2022-08-10T02:01:49.140Z,15.40
2022-08-10T02:04:20.776Z,15.30
2022-08-10T02:06:52.571Z,15.30
2022-08-10T02:09:32.746Z,15.20
2022-08-10T02:12:08.865Z,15.20
2022-08-10T02:14:42.268Z,15.20
2022-08-10T02:17:59.529Z,15.20
2022-08-10T02:20:07.226Z,15.20
2022-08-10T02:22:38.853Z,15.10
2022-08-10T02:25:41.293Z,15.10
2022-08-10T02:28:01.984Z,15.10
2022-08-10T02:30:30.208Z,15.10
2022-08-10T02:32:58.938Z,15.10
2022-08-10T02:35:30.661Z,15.00
2022-08-10T02:38:19.734Z,14.90
2022-08-10T02:45:08.181Z,14.90
2022-08-10T02:45:26.954Z,14.90
2022-08-10T02:47:09.156Z,14.90
2022-08-10T02:49:41.837Z,14.90
2022-08-10T02:52:16.548Z,14.90
2022-08-10T02:54:52.434Z,14.90
2022-08-10T02:57:24.917Z,14.90
2022-08-10T02:59:57.606Z,14.80
2022-08-10T03:02:32.545Z,14.70
2022-08-10T03:05:07.918Z,14.70
2022-08-10T03:07:46.348Z,14.70
2022-08-10T03:10:22.956Z,14.60
2022-08-10T03:12:52.803Z,14.70
2022-08-10T03:15:22.024Z,14.60
2022-08-10T03:17:57.653Z,14.60
2022-08-10T03:20:37.310Z,14.60
2022-08-10T03:23:12.856Z,14.50
2022-08-10T03:25:40.493Z,14.50
2022-08-10T03:28:08.419Z,14.50
2022-08-10T03:30:35.931Z,14.50
2022-08-10T03:33:07.652Z,14.40
2022-08-10T03:35:35.020Z,14.40
2022-08-10T03:38:04.200Z,14.50
2022-08-10T03:40:46.455Z,14.50
2022-08-10T03:43:23.520Z,14.50
2022-08-10T03:45:56.688Z,14.60
2022-08-10T03:48:42.457Z,14.60
2022-08-10T03:51:18.825Z,14.50
2022-08-10T03:54:06.231Z,14.60
2022-08-10T03:56:40.900Z,14.50
2022-08-10T03:59:10.839Z,14.60
2022-08-10T04:02:45.056Z,14.60
2022-08-10T04:04:29.743Z,14.60
2022-08-10T04:06:58.575Z,14.60
2022-08-10T04:09:53.945Z,14.60
2022-08-10T04:12:22.914Z,14.60
2022-08-10T04:14:53.263Z,14.60
2022-08-10T04:18:04.340Z,14.60
2022-08-10T04:20:37.090Z,14.70
2022-08-10T04:23:10.796Z,14.80
2022-08-10T04:25:39.673Z,14.70
2022-08-10T04:28:08.848Z,14.70
2022-08-10T04:30:36.802Z,14.70
2022-08-10T04:33:09.129Z,14.70
2022-08-10T04:35:41.955Z,14.80
2022-08-10T04:38:09.519Z,14.80
2022-08-10T04:40:39.000Z,14.80
2022-08-10T04:43:12.903Z,14.80
2022-08-10T04:45:51.466Z,14.90
2022-08-10T04:48:42.271Z,14.90
2022-08-10T04:51:15.222Z,15.00
2022-08-10T04:54:05.771Z,15.10
2022-08-10T04:56:32.874Z,15.10
2022-08-10T04:59:00.621Z,15.20
2022-08-10T05:02:21.471Z,15.20
2022-08-10T05:04:35.660Z,15.20
2022-08-10T05:07:08.215Z,15.30
2022-08-10T05:10:01.860Z,15.30
2022-08-10T05:12:24.508Z,15.40
2022-08-10T05:14:54.527Z,15.40
2022-08-10T05:17:22.512Z,15.50
2022-08-10T05:20:03.058Z,15.50
2022-08-10T05:22:35.687Z,15.50
2022-08-10T05:25:06.208Z,15.70
2022-08-10T05:27:35.999Z,15.70
2022-08-10T05:30:04.284Z,15.70
2022-08-10T05:32:55.257Z,15.80
2022-08-10T05:35:19.937Z,15.80
2022-08-10T05:38:12.588Z,15.80
2022-08-10T05:40:37.706Z,15.90
2022-08-10T05:43:05.549Z,15.90
2022-08-10T05:45:32.401Z,16.00
2022-08-10T05:48:57.252Z,15.90
2022-08-10T05:50:49.335Z,16.00
2022-08-10T05:53:59.512Z,15.90
2022-08-10T05:56:04.152Z,15.90
2022-08-10T05:58:31.098Z,15.90
2022-08-10T06:00:59.989Z,16.00
2022-08-10T06:03:34.268Z,16.00
2022-08-10T06:06:06.261Z,16.10
2022-08-10T06:08:35.466Z,16.10
2022-08-10T06:12:27.317Z,16.20
2022-08-10T06:14:16.040Z,16.30
2022-08-10T06:16:44.552Z,16.40
2022-08-10T06:19:15.336Z,16.40
2022-08-10T06:21:55.355Z,16.50
2022-08-10T06:24:33.337Z,16.50
2022-08-10T06:27:00.252Z,16.60
2022-08-10T06:29:30.729Z,16.50
2022-08-10T06:32:01.939Z,16.60
2022-08-10T06:34:39.967Z,16.70
2022-08-10T06:37:08.430Z,16.80
2022-08-10T06:39:36.900Z,16.90
2022-08-10T06:42:19.475Z,16.90
2022-08-10T06:45:12.229Z,17.00
2022-08-10T06:47:54.073Z,17.00
2022-08-10T06:50:44.904Z,17.00
2022-08-10T06:53:21.216Z,17.20
2022-08-10T06:55:58.195Z,17.30
2022-08-10T06:58:31.696Z,17.40
2022-08-10T07:01:02.883Z,17.50
2022-08-10T07:03:36.812Z,17.50
2022-08-10T07:06:06.595Z,17.70
2022-08-10T07:08:36.849Z,17.70
2022-08-10T07:11:08.797Z,17.80
2022-08-10T07:14:16.885Z,18.00
2022-08-10T07:16:28.847Z,18.00
2022-08-10T07:18:59.631Z,18.20
2022-08-10T07:21:30.805Z,18.40
2022-08-10T07:24:00.852Z,18.50
2022-08-10T07:26:32.804Z,18.60
2022-08-10T07:29:00.636Z,18.60
2022-08-10T07:31:36.010Z,18.60
2022-08-10T07:34:28.888Z,18.70
2022-08-10T07:37:00.899Z,18.70
2022-08-10T07:39:58.135Z,18.80
2022-08-10T07:42:24.730Z,18.90
2022-08-10T07:44:52.288Z,19.10
2022-08-10T07:47:53.444Z,19.20
2022-08-10T07:50:19.160Z,19.20
2022-08-10T07:52:47.738Z,19.30
2022-08-10T07:55:18.222Z,19.20
2022-08-10T07:57:48.378Z,19.30
2022-08-10T08:00:16.482Z,19.40
2022-08-10T08:02:53.966Z,19.40
2022-08-10T08:05:54.834Z,19.40
2022-08-10T08:08:16.045Z,19.40
2022-08-10T08:10:43.115Z,19.40
2022-08-10T08:13:13.728Z,19.80
2022-08-10T08:16:20.731Z,19.70
2022-08-10T08:18:32.628Z,19.70
2022-08-10T08:24:01.818Z,19.80
2022-08-10T08:24:31.048Z,19.80
2022-08-10T08:26:52.227Z,20.00
2022-08-10T08:29:22.408Z,19.90
2022-08-10T08:31:54.551Z,19.90
2022-08-10T08:34:34.507Z,20.00
2022-08-10T08:37:03.716Z,19.90
2022-08-10T08:39:36.828Z,20.10
2022-08-10T08:42:20.908Z,20.20
2022-08-10T08:45:03.257Z,20.40
2022-08-10T08:48:04.324Z,20.40
2022-08-10T08:50:57.322Z,20.30
2022-08-10T08:54:01.901Z,20.20
2022-08-10T08:56:53.949Z,20.30
2022-08-10T08:59:23.603Z,20.40
2022-08-10T09:02:18.188Z,20.50
2022-08-10T09:05:14.009Z,20.70
2022-08-10T09:08:00.148Z,20.80
2022-08-10T09:10:54.377Z,20.70
2022-08-10T09:13:40.175Z,20.60
2022-08-10T09:16:20.810Z,20.90
2022-08-10T09:19:19.682Z,20.90
2022-08-10T09:22:17.970Z,20.90
2022-08-10T09:25:09.228Z,20.90
2022-08-10T09:27:49.675Z,21.10
2022-08-10T09:30:28.425Z,21.10
2022-08-10T09:36:23.162Z,21.30
2022-08-10T09:36:27.000Z,21.10
2022-08-10T09:40:06.699Z,21.50
2022-08-10T09:42:25.822Z,21.40
2022-08-10T09:45:09.869Z,21.40
2022-08-10T09:48:15.785Z,21.40
2022-08-10T09:51:41.808Z,21.40
2022-08-10T09:54:31.114Z,21.70
2022-08-10T09:57:41.531Z,21.80
2022-08-10T10:00:12.844Z,21.90
2022-08-10T10:03:04.651Z,22.00
2022-08-10T10:06:13.749Z,21.90
2022-08-10T10:09:10.235Z,21.90
2022-08-10T10:12:13.126Z,22.20
2022-08-10T10:15:24.747Z,22.10
2022-08-10T10:18:07.565Z,22.10
2022-08-10T10:21:23.895Z,22.20
2022-08-10T10:24:39.381Z,22.30
2022-08-10T10:27:33.094Z,22.40
2022-08-10T10:30:16.024Z,22.50
2022-08-10T10:33:13.338Z,22.50
2022-08-10T10:35:56.911Z,22.70
2022-08-10T10:38:29.790Z,22.70
2022-08-10T10:41:15.432Z,23.10
2022-08-10T10:44:10.756Z,23.10
2022-08-10T10:47:12.287Z,23.20
2022-08-10T10:49:53.832Z,23.30
2022-08-10T10:52:39.092Z,23.30
2022-08-10T10:55:34.650Z,23.40
2022-08-10T10:58:48.931Z,23.40
2022-08-10T11:01:21.843Z,23.50
2022-08-10T11:04:04.958Z,23.60
2022-08-10T11:07:03.135Z,23.60
2022-08-10T11:10:05.973Z,23.60
2022-08-10T11:12:52.467Z,23.70
2022-08-10T11:15:47.624Z,23.70
2022-08-10T11:18:44.996Z,23.80
2022-08-10T11:21:32.559Z,23.80
2022-08-10T11:24:48.304Z,23.90
2022-08-10T11:27:27.311Z,24.10
2022-08-10T11:30:28.144Z,24.10
2022-08-10T11:33:33.022Z,24.30
2022-08-10T11:36:27.697Z,24.40
2022-08-10T11:39:14.300Z,24.50
2022-08-10T11:42:08.839Z,24.60
2022-08-10T11:45:00.441Z,24.70
2022-08-10T11:47:39.382Z,24.80
2022-08-10T11:50:30.528Z,24.90
2022-08-10T11:53:22.313Z,25.00
2022-08-10T11:55:56.550Z,25.00
2022-08-10T11:58:46.569Z,25.10
2022-08-10T12:01:17.453Z,25.10
2022-08-10T12:03:48.860Z,25.20
2022-08-10T12:06:39.306Z,25.30
2022-08-10T12:10:08.634Z,25.30
2022-08-10T12:11:59.227Z,25.40
2022-08-10T12:14:32.320Z,25.50
2022-08-10T12:17:27.084Z,25.60
2022-08-10T12:20:06.927Z,25.70
2022-08-10T12:22:56.781Z,25.80
2022-08-10T12:25:56.884Z,26.00
2022-08-10T12:28:49.894Z,26.40
2022-08-10T12:31:25.221Z,27.10
2022-08-10T12:34:16.828Z,27.80
2022-08-10T12:36:53.603Z,28.70
2022-08-10T12:39:26.810Z,30.10
2022-08-10T12:42:06.278Z,33.60
2022-08-10T12:44:42.909Z,41.10
2022-08-10T12:47:18.096Z,44.60
2022-08-10T12:50:29.199Z,47.50
2022-08-10T12:53:06.363Z,48.40
2022-08-10T12:55:37.340Z,49.60
2022-08-10T12:59:00.151Z,50.90
2022-08-10T13:01:15.137Z,52.50
2022-08-10T13:04:21.113Z,51.80
2022-08-10T13:06:41.560Z,51.90
2022-08-10T13:09:08.899Z,54.10
2022-08-10T13:12:35.090Z,58.10
2022-08-10T13:14:45.654Z,60.10
2022-08-10T13:17:21.184Z,61.30
2022-08-10T13:19:55.265Z,62.20
2022-08-10T13:22:33.247Z,63.20
2022-08-10T13:25:03.015Z,64.90
2022-08-10T13:28:01.208Z,64.20
2022-08-10T13:30:37.377Z,64.20
2022-08-10T13:33:07.450Z,63.70
2022-08-10T13:35:38.273Z,64.30
2022-08-10T13:38:07.212Z,62.90
2022-08-10T13:40:36.073Z,64.30
2022-08-10T13:43:07.534Z,65.90
2022-08-10T13:45:42.337Z,66.10
2022-08-10T13:48:19.617Z,65.40
2022-08-10T13:50:49.437Z,65.20
2022-08-10T13:53:18.053Z,66.00
2022-08-10T13:55:57.178Z,65.80
2022-08-10T13:58:42.359Z,65.10
2022-08-10T14:01:21.383Z,65.00
2022-08-10T14:03:50.212Z,64.70
2022-08-10T14:06:22.071Z,64.30
2022-08-10T14:09:12.845Z,62.70
2022-08-10T14:11:43.950Z,62.60
2022-08-10T14:14:24.600Z,62.30
2022-08-10T14:16:52.655Z,62.20
2022-08-10T14:19:29.824Z,62.00
2022-08-10T14:21:59.528Z,62.00
2022-08-10T14:24:34.005Z,61.80
2022-08-10T14:27:12.329Z,60.40
2022-08-10T14:29:51.497Z,59.20
2022-08-10T14:32:21.965Z,59.40
2022-08-10T14:36:16.288Z,58.70
2022-08-10T14:37:54.451Z,59.00
2022-08-10T14:40:28.702Z,56.10
2022-08-10T14:43:04.637Z,50.60
2022-08-10T14:45:37.541Z,47.00
2022-08-10T14:48:20.208Z,44.50
2022-08-10T14:50:55.836Z,42.80
2022-08-10T14:53:27.251Z,42.30
2022-08-10T14:56:00.873Z,41.80
2022-08-10T14:58:36.070Z,45.10
2022-08-10T15:01:07.887Z,44.00
2022-08-10T15:04:01.339Z,41.50
2022-08-10T15:06:30.253Z,39.60
2022-08-10T15:09:19.418Z,37.60
2022-08-10T15:12:14.034Z,36.30
2022-08-10T15:14:49.906Z,35.80
2022-08-10T15:17:28.341Z,34.40
2022-08-10T15:20:13.798Z,33.30
2022-08-10T15:23:01.079Z,32.40
2022-08-10T15:25:29.994Z,32.00
2022-08-10T15:28:06.365Z,31.70
2022-08-10T15:30:40.944Z,31.20
2022-08-10T15:33:56.879Z,30.60
2022-08-10T15:36:37.402Z,30.10
2022-08-10T15:39:17.259Z,29.60
2022-08-10T15:42:19.984Z,29.20
2022-08-10T15:44:50.011Z,28.90
2022-08-10T15:47:50.711Z,28.70
2022-08-10T15:50:25.203Z,28.50
2022-08-10T15:53:16.080Z,28.50
2022-08-10T15:56:10.245Z,29.10
2022-08-10T15:58:49.994Z,31.40
2022-08-10T16:02:13.934Z,31.20
2022-08-10T16:05:00.485Z,31.10
2022-08-10T16:07:57.370Z,30.20
2022-08-10T16:10:30.871Z,29.70
2022-08-10T16:13:01.317Z,29.40
2022-08-10T16:15:32.557Z,29.30
2022-08-10T16:18:09.709Z,29.10
2022-08-10T16:20:58.459Z,28.80
2022-08-10T16:23:39.707Z,28.60
2022-08-10T16:26:14.686Z,30.00
2022-08-10T16:28:57.319Z,31.70
2022-08-10T16:31:27.618Z,31.10
2022-08-10T16:33:57.835Z,30.90
2022-08-10T16:36:37.065Z,30.70
2022-08-10T16:39:08.048Z,30.50
2022-08-10T16:42:03.201Z,30.70
2022-08-10T16:44:40.591Z,30.70
2022-08-10T16:47:09.839Z,30.30
2022-08-10T16:49:41.917Z,30.10
2022-08-10T16:52:11.081Z,29.60
2022-08-10T16:54:41.392Z,29.20
2022-08-10T16:57:09.562Z,28.70
2022-08-10T16:59:39.057Z,28.90
2022-08-10T17:02:07.398Z,29.10
2022-08-10T17:04:37.942Z,28.60
2022-08-10T17:07:12.245Z,28.20
2022-08-10T17:09:40.874Z,27.90
2022-08-10T17:12:13.516Z,27.60
2022-08-10T17:14:42.727Z,27.40
2022-08-10T17:17:21.950Z,27.10
2022-08-10T17:19:50.911Z,26.90
2022-08-10T17:22:24.219Z,26.70
2022-08-10T17:24:57.298Z,26.50
2022-08-10T17:28:05.031Z,26.30
2022-08-10T17:30:34.249Z,26.20
2022-08-10T17:33:15.326Z,26.10
2022-08-10T17:35:47.002Z,25.90
2022-08-10T17:38:21.738Z,25.80
2022-08-10T17:41:03.705Z,25.70
2022-08-10T17:43:46.687Z,25.50
2022-08-10T17:46:21.132Z,25.40
2022-08-10T17:48:48.526Z,25.30
2022-08-10T17:51:18.500Z,25.20
2022-08-10T17:53:51.301Z,25.30
2022-08-10T17:56:21.128Z,25.30
2022-08-10T17:59:11.525Z,25.00
2022-08-10T18:01:58.398Z,24.90
2022-08-10T18:04:41.380Z,24.70
2022-08-10T18:07:12.774Z,24.70
2022-08-10T18:09:42.133Z,24.60
2022-08-10T18:12:18.134Z,24.40
2022-08-10T18:14:50.111Z,24.30
2022-08-10T18:17:31.974Z,24.20
2022-08-10T18:20:10.006Z,24.00
2022-08-10T18:22:47.476Z,24.00
2022-08-10T18:25:27.477Z,23.80
2022-08-10T18:28:03.976Z,24.10
2022-08-10T18:30:36.435Z,24.00
2022-08-10T18:33:09.285Z,24.00
2022-08-10T18:35:39.785Z,23.90
2022-08-10T18:38:07.740Z,23.80
2022-08-10T18:40:38.555Z,23.70
2022-08-10T18:44:10.625Z,23.50
2022-08-10T18:45:58.749Z,23.40
2022-08-10T18:48:40.546Z,23.40
2022-08-10T18:51:11.712Z,23.20
2022-08-10T18:53:50.740Z,23.00
2022-08-10T18:56:43.933Z,22.80
2022-08-10T19:00:03.529Z,22.60
2022-08-10T19:02:37.625Z,22.50
2022-08-10T19:05:32.947Z,22.30
2022-08-10T19:08:31.125Z,22.20
2022-08-10T19:11:19.641Z,22.10
2022-08-10T19:14:00.407Z,21.90
2022-08-10T19:17:01.768Z,21.80
2022-08-10T19:20:00.442Z,21.80
2022-08-10T19:22:31.903Z,21.70
2022-08-10T19:26:32.892Z,21.70
2022-08-10T19:28:51.368Z,21.70
2022-08-10T19:31:24.169Z,21.80
2022-08-10T19:34:47.329Z,21.80
2022-08-10T19:37:44.787Z,21.80
2022-08-10T19:40:47.527Z,21.90
2022-08-10T19:43:20.808Z,21.90
2022-08-10T19:46:20.589Z,22.00
2022-08-10T19:48:56.232Z,22.00
2022-08-10T19:51:41.877Z,22.00
2022-08-10T19:54:41.413Z,21.90
2022-08-10T19:57:24.803Z,21.90
2022-08-10T20:00:18.884Z,21.90
2022-08-10T20:03:14.219Z,21.90
2022-08-10T20:06:17.962Z,21.80
2022-08-10T20:09:10.807Z,21.70
2022-08-10T20:11:59.359Z,21.70
2022-08-10T20:14:34.947Z,21.70
2022-08-10T20:17:16.223Z,21.60
2022-08-10T20:20:06.082Z,21.50
2022-08-10T20:22:40.080Z,21.50
2022-08-10T20:25:18.065Z,21.60
2022-08-10T20:28:02.474Z,21.50
2022-08-10T20:30:33.432Z,21.50
2022-08-10T20:33:13.740Z,21.50
2022-08-10T20:35:48.925Z,21.60
2022-08-10T20:38:27.481Z,21.50
2022-08-10T20:41:07.757Z,21.50
2022-08-10T20:43:43.311Z,21.40
2022-08-10T20:46:33.718Z,21.40
2022-08-10T20:49:15.636Z,21.40
2022-08-10T20:51:58.448Z,21.40
2022-08-10T20:54:44.140Z,21.30
2022-08-10T20:57:54.752Z,21.20
2022-08-10T21:00:19.349Z,21.20
2022-08-10T21:03:06.629Z,21.30
2022-08-10T21:06:12.065Z,21.20
2022-08-10T21:09:12.818Z,21.20
2022-08-10T21:12:17.359Z,21.10
2022-08-10T21:15:10.344Z,21.10
2022-08-10T21:17:43.110Z,20.90
2022-08-10T21:20:47.348Z,20.90
2022-08-10T21:23:16.857Z,20.80
2022-08-10T21:26:08.809Z,20.80
2022-08-10T21:29:00.048Z,20.80
2022-08-10T21:32:03.348Z,20.60
2022-08-10T21:35:36.270Z,20.60
2022-08-10T21:38:15.769Z,20.50
2022-08-10T21:41:17.391Z,20.40
2022-08-10T21:44:29.321Z,20.40
2022-08-10T21:48:04.847Z,20.30
2022-08-10T21:50:55.272Z,20.20
2022-08-10T21:53:53.010Z,20.10
2022-08-10T21:56:59.520Z,20.10
2022-08-10T21:59:57.070Z,20.10
2022-08-10T22:02:50.387Z,20.00
2022-08-10T22:05:56.893Z,19.90
2022-08-10T22:08:52.280Z,19.80
2022-08-10T22:11:43.011Z,19.70
2022-08-10T22:14:33.637Z,19.70
2022-08-10T22:18:03.569Z,19.60
2022-08-10T22:20:41.314Z,19.60
2022-08-10T22:23:48.374Z,19.60
2022-08-10T22:26:56.537Z,19.50
2022-08-10T22:30:04.363Z,19.50
2022-08-10T22:32:57.899Z,19.40
2022-08-10T22:35:53.052Z,19.30
2022-08-10T22:38:57.805Z,19.30
2022-08-10T22:41:55.641Z,19.20
2022-08-10T22:44:46.762Z,19.20
2022-08-10T22:47:33.310Z,19.10
2022-08-10T22:50:07.424Z,19.00
2022-08-10T22:53:03.192Z,19.10
2022-08-10T22:55:53.263Z,19.00
2022-08-10T22:58:38.966Z,19.00
2022-08-10T23:02:08.333Z,18.90
2022-08-10T23:04:38.342Z,18.90
2022-08-10T23:07:16.282Z,18.90
2022-08-10T23:09:49.021Z,18.90
2022-08-10T23:12:25.672Z,18.80
2022-08-10T23:15:16.063Z,18.70
2022-08-10T23:18:09.012Z,18.70
2022-08-10T23:20:40.320Z,18.70
2022-08-10T23:23:13.442Z,18.60
2022-08-10T23:25:56.844Z,18.50
2022-08-10T23:28:39.283Z,18.50
2022-08-10T23:31:17.628Z,18.50
2022-08-10T23:34:08.515Z,18.40
2022-08-10T23:36:39.721Z,18.40
2022-08-10T23:39:26.299Z,18.40
2022-08-10T23:42:03.038Z,18.40
2022-08-10T23:44:37.265Z,18.50
2022-08-10T23:47:05.361Z,18.40
2022-08-10T23:49:35.465Z,18.40
2022-08-10T23:52:13.832Z,18.40
2022-08-10T23:54:46.641Z,18.30
2022-08-10T23:57:20.109Z,18.30
